Lowestoft, United Kingdom
Current Conditions -  °F | °C
As of 3:20 PM on Wednesday 26 Nov 2014 (Local Time) from EGSD Reporting Station
Light Rain Light Rain  
Wind Chill: 50°   Ceiling: 1100
Heat Index: 50°   Visibility: 4mi
Dew Point: 48°   Wind: 7mph
Humidity: 94%   Direction: 110°ESE
Pressure: 29.83"   Gusts: NA
Location:  52.47°N, 1.75°E
Report Text: EGSD 261520Z 11006KT 6000 -RA BKN011 10/09 Q1010
Loading
Personal Weather Stations






























Interactive Weather Map New forecast layout! Learn more

10-Day Weather Forecast

Advertisements
Track Severe Weather on mobile